createdAt,value
2017-09-29T00:00:55.347Z,0.00
2017-09-29T00:01:55.273Z,0.00
2017-09-29T00:02:55.191Z,0.00
2017-09-29T00:03:56.263Z,0.00
2017-09-29T00:04:55.045Z,0.00
2017-09-29T00:05:54.958Z,0.00
2017-09-29T00:06:54.873Z,0.00
2017-09-29T00:07:54.794Z,0.00
2017-09-29T00:08:54.727Z,0.00
2017-09-29T00:09:54.637Z,0.00
2017-09-29T00:10:54.559Z,0.00
2017-09-29T00:11:54.477Z,0.00
2017-09-29T00:12:54.398Z,0.00
2017-09-29T00:13:54.326Z,0.00
2017-09-29T00:14:54.243Z,0.00
2017-09-29T00:15:54.165Z,0.00
2017-09-29T00:16:54.103Z,0.00
2017-09-29T00:17:54.007Z,0.00
2017-09-29T00:18:53.932Z,0.00
2017-09-29T00:19:53.857Z,0.00
2017-09-29T00:20:53.776Z,0.00
2017-09-29T00:21:53.699Z,0.00
2017-09-29T00:22:53.616Z,0.00
2017-09-29T00:23:53.533Z,0.00
2017-09-29T00:24:53.452Z,0.00
2017-09-29T00:25:53.386Z,0.00
2017-09-29T00:26:53.298Z,0.00
2017-09-29T00:27:53.225Z,0.00
2017-09-29T00:28:53.143Z,0.00
2017-09-29T00:29:53.064Z,0.00
2017-09-29T00:30:52.978Z,0.00
2017-09-29T00:31:52.926Z,0.00
2017-09-29T00:32:52.834Z,0.00
2017-09-29T00:33:52.748Z,0.00
2017-09-29T00:34:52.696Z,0.00
2017-09-29T00:35:52.624Z,0.00
2017-09-29T00:36:52.514Z,0.00
2017-09-29T00:37:52.445Z,0.00
2017-09-29T00:38:52.359Z,0.00
2017-09-29T00:39:52.272Z,0.00
2017-09-29T00:40:52.203Z,0.00
2017-09-29T00:41:52.118Z,0.00
2017-09-29T00:42:52.038Z,0.00
2017-09-29T00:43:51.959Z,0.00
2017-09-29T00:44:51.888Z,0.00
2017-09-29T00:45:51.804Z,0.00
2017-09-29T00:46:51.731Z,0.00
2017-09-29T00:47:51.651Z,0.00
2017-09-29T00:48:51.568Z,0.00
2017-09-29T00:49:51.488Z,0.00
2017-09-29T00:50:51.431Z,0.00
2017-09-29T00:51:51.335Z,0.00
2017-09-29T00:52:51.258Z,0.00
2017-09-29T00:53:51.182Z,0.00
2017-09-29T00:54:51.102Z,0.00
2017-09-29T00:55:51.023Z,0.00
2017-09-29T00:56:50.942Z,0.00
2017-09-29T00:57:50.867Z,0.00
2017-09-29T00:58:50.812Z,0.00
2017-09-29T00:59:50.710Z,0.00
2017-09-29T01:00:50.635Z,0.00
2017-09-29T01:01:50.558Z,0.00
2017-09-29T01:02:50.470Z,0.00
2017-09-29T01:03:50.394Z,0.00
2017-09-29T01:04:50.315Z,0.00
2017-09-29T01:05:50.237Z,0.00
2017-09-29T01:06:50.159Z,0.00
2017-09-29T01:07:50.082Z,0.00
2017-09-29T01:08:50.009Z,0.00
2017-09-29T01:09:49.926Z,0.00
2017-09-29T01:10:49.849Z,0.00
2017-09-29T01:11:49.773Z,0.00
2017-09-29T01:12:49.695Z,0.00
2017-09-29T01:13:49.612Z,0.00
2017-09-29T01:14:49.544Z,0.00
2017-09-29T01:15:49.466Z,0.00
2017-09-29T01:16:49.381Z,0.00
2017-09-29T01:17:49.306Z,0.00
2017-09-29T01:18:49.217Z,0.00
2017-09-29T01:19:49.141Z,0.00
2017-09-29T01:20:49.077Z,0.00
2017-09-29T01:21:48.994Z,0.00
2017-09-29T01:22:48.910Z,0.00
2017-09-29T01:23:48.839Z,0.00
2017-09-29T01:24:48.754Z,0.00
2017-09-29T01:25:48.675Z,0.00
2017-09-29T01:26:48.608Z,0.00
2017-09-29T01:27:48.525Z,0.00
2017-09-29T01:28:48.441Z,0.00
2017-09-29T01:29:48.372Z,0.00
2017-09-29T01:30:48.289Z,0.00
2017-09-29T01:31:48.201Z,0.00
2017-09-29T01:32:48.125Z,0.00
2017-09-29T01:33:48.057Z,0.00
2017-09-29T01:34:47.965Z,0.00
2017-09-29T01:35:47.897Z,0.00
2017-09-29T01:36:47.808Z,0.00
2017-09-29T01:37:47.733Z,0.00
2017-09-29T01:38:47.654Z,0.00
2017-09-29T01:39:47.597Z,0.00
2017-09-29T01:40:47.500Z,0.00
2017-09-29T01:41:47.453Z,0.00
2017-09-29T01:42:47.347Z,0.00
2017-09-29T01:43:47.266Z,0.00
2017-09-29T01:44:47.185Z,0.00
2017-09-29T01:45:47.108Z,0.00
2017-09-29T01:46:47.028Z,0.00
2017-09-29T01:47:46.963Z,0.00
2017-09-29T01:48:46.876Z,0.00
2017-09-29T01:49:46.795Z,0.00
2017-09-29T01:50:46.722Z,0.00
2017-09-29T01:51:46.638Z,0.00
2017-09-29T01:52:46.562Z,0.00
2017-09-29T01:53:46.484Z,0.00
2017-09-29T01:54:46.401Z,0.00
2017-09-29T01:55:46.320Z,0.00
2017-09-29T01:56:46.244Z,0.00
2017-09-29T01:57:46.165Z,0.00
2017-09-29T01:58:46.092Z,0.00
2017-09-29T01:59:46.032Z,0.00
2017-09-29T02:00:45.931Z,0.00
2017-09-29T02:01:45.851Z,0.00
2017-09-29T02:02:45.777Z,0.00
2017-09-29T02:03:45.695Z,0.00
2017-09-29T02:04:45.620Z,0.00
2017-09-29T02:05:45.545Z,0.00
2017-09-29T02:06:45.459Z,0.00
2017-09-29T02:07:45.378Z,0.00
2017-09-29T02:08:45.315Z,0.00
2017-09-29T02:09:45.225Z,0.00
2017-09-29T02:10:45.150Z,0.00
2017-09-29T02:11:45.072Z,0.00
2017-09-29T02:12:44.992Z,0.00
2017-09-29T02:13:44.911Z,0.00
2017-09-29T02:14:44.869Z,0.00
2017-09-29T02:15:44.754Z,0.00
2017-09-29T02:16:44.674Z,0.00
2017-09-29T02:17:44.617Z,0.00
2017-09-29T02:18:44.517Z,0.00
2017-09-29T02:19:44.468Z,0.00
2017-09-29T02:20:44.365Z,0.00
2017-09-29T02:21:44.285Z,0.00
2017-09-29T02:22:44.212Z,0.00
2017-09-29T02:23:44.132Z,0.00
2017-09-29T02:24:44.049Z,0.00
2017-09-29T02:25:43.974Z,0.00
2017-09-29T02:26:43.891Z,0.00
2017-09-29T02:27:43.820Z,0.00
2017-09-29T02:28:43.761Z,0.00
2017-09-29T02:29:43.661Z,0.00
2017-09-29T02:30:43.577Z,0.00
2017-09-29T02:31:43.505Z,0.00
2017-09-29T02:32:43.423Z,0.00
2017-09-29T02:33:43.350Z,0.00
2017-09-29T02:34:43.264Z,0.00
2017-09-29T02:35:43.186Z,0.00
2017-09-29T02:36:43.111Z,0.00
2017-09-29T02:37:43.029Z,0.00
2017-09-29T02:38:42.952Z,0.00
2017-09-29T02:39:42.876Z,0.00
2017-09-29T02:40:42.799Z,0.00
2017-09-29T02:41:42.730Z,0.00
2017-09-29T02:42:42.638Z,0.00
2017-09-29T02:43:42.576Z,0.00
2017-09-29T02:44:42.481Z,0.00
2017-09-29T02:45:42.413Z,0.00
2017-09-29T02:46:42.323Z,0.00
2017-09-29T02:47:42.246Z,0.00
2017-09-29T02:48:42.167Z,0.00
2017-09-29T02:49:42.089Z,0.00
2017-09-29T02:50:42.014Z,0.00
2017-09-29T02:51:41.940Z,0.00
2017-09-29T02:52:41.853Z,0.00
2017-09-29T02:53:41.776Z,0.00
2017-09-29T02:54:41.701Z,0.00
2017-09-29T02:55:41.639Z,0.00
2017-09-29T02:56:41.545Z,0.00
2017-09-29T02:57:41.463Z,0.00
2017-09-29T02:58:41.391Z,0.00
2017-09-29T02:59:41.307Z,0.00
2017-09-29T03:00:41.232Z,0.00
2017-09-29T03:01:41.149Z,0.00
2017-09-29T03:02:41.071Z,0.00
2017-09-29T03:03:40.999Z,0.00
2017-09-29T03:04:40.916Z,0.00
2017-09-29T03:05:40.834Z,0.00
2017-09-29T03:06:40.760Z,0.00
2017-09-29T03:07:40.679Z,0.00
2017-09-29T03:08:40.597Z,0.00
2017-09-29T03:09:40.517Z,0.00
2017-09-29T03:10:40.447Z,0.00
2017-09-29T03:11:40.362Z,0.00
2017-09-29T03:12:40.297Z,0.00
2017-09-29T03:13:40.208Z,0.00
2017-09-29T03:14:40.130Z,0.00
2017-09-29T03:15:40.082Z,0.00
2017-09-29T03:16:39.980Z,0.00
2017-09-29T03:17:39.898Z,0.00
2017-09-29T03:18:39.813Z,0.00
2017-09-29T03:19:39.734Z,0.00
2017-09-29T03:20:39.660Z,0.00
2017-09-29T03:21:39.585Z,0.00
2017-09-29T03:22:39.500Z,0.00
2017-09-29T03:23:39.450Z,0.00
2017-09-29T03:24:39.353Z,0.00
2017-09-29T03:25:39.267Z,0.00
2017-09-29T03:26:39.186Z,0.00
2017-09-29T03:27:39.113Z,0.00
2017-09-29T03:28:39.028Z,0.00
2017-09-29T03:29:38.948Z,0.00
2017-09-29T03:30:38.893Z,0.00
2017-09-29T03:31:38.791Z,0.00
2017-09-29T03:32:38.718Z,0.00
2017-09-29T03:33:38.639Z,0.00
2017-09-29T03:34:38.558Z,0.00
2017-09-29T03:35:38.477Z,0.00
2017-09-29T03:36:38.403Z,0.00
2017-09-29T03:37:38.323Z,0.00
2017-09-29T03:38:38.248Z,0.00
2017-09-29T03:39:38.170Z,0.00
2017-09-29T03:40:38.092Z,0.00
2017-09-29T03:41:38.021Z,0.00
2017-09-29T03:42:37.929Z,0.00
2017-09-29T03:43:37.886Z,0.00
2017-09-29T03:44:37.774Z,0.00
2017-09-29T03:45:37.714Z,0.00
2017-09-29T03:46:37.615Z,0.00
2017-09-29T03:47:37.536Z,0.00
2017-09-29T03:48:37.459Z,0.00
2017-09-29T03:49:37.374Z,0.00
2017-09-29T03:50:37.296Z,0.00
2017-09-29T03:51:37.220Z,0.00
2017-09-29T03:52:37.140Z,0.00
2017-09-29T03:53:37.072Z,0.00
2017-09-29T03:54:36.988Z,0.00
2017-09-29T03:55:36.909Z,0.00
2017-09-29T03:56:36.852Z,0.00
2017-09-29T03:57:36.750Z,0.00
2017-09-29T03:58:36.701Z,0.00
2017-09-29T03:59:36.594Z,0.00
2017-09-29T04:00:36.539Z,0.00
2017-09-29T04:01:36.444Z,0.00
2017-09-29T04:02:36.358Z,0.00
2017-09-29T04:03:36.277Z,0.00
2017-09-29T04:04:36.212Z,0.00
2017-09-29T04:05:36.134Z,0.00
2017-09-29T04:06:36.046Z,0.00
2017-09-29T04:07:35.972Z,0.00
2017-09-29T04:08:35.887Z,0.00
2017-09-29T04:09:35.805Z,0.00
2017-09-29T04:10:35.735Z,0.00
2017-09-29T04:11:35.657Z,0.00
2017-09-29T04:12:35.580Z,0.00
2017-09-29T04:13:35.500Z,0.00
2017-09-29T04:14:35.416Z,0.00
2017-09-29T04:15:35.339Z,0.00
2017-09-29T04:16:35.258Z,0.00
2017-09-29T04:17:35.207Z,0.00
2017-09-29T04:18:35.103Z,0.00
2017-09-29T04:19:35.022Z,0.00
2017-09-29T04:20:34.947Z,0.00
2017-09-29T04:21:34.865Z,0.00
2017-09-29T04:22:34.789Z,0.00
2017-09-29T04:23:34.719Z,0.00
2017-09-29T04:24:34.628Z,0.00
2017-09-29T04:25:34.556Z,0.00
2017-09-29T04:26:34.476Z,0.00
2017-09-29T04:27:34.390Z,0.00
2017-09-29T04:28:34.315Z,0.00
2017-09-29T04:29:34.244Z,0.00
2017-09-29T04:30:34.162Z,0.00
2017-09-29T04:31:34.075Z,0.00
2017-09-29T04:32:33.993Z,0.00
2017-09-29T04:33:33.916Z,0.00
2017-09-29T04:34:33.839Z,0.00
2017-09-29T04:35:33.759Z,0.00
2017-09-29T04:36:33.687Z,0.00
2017-09-29T04:37:33.597Z,0.00
2017-09-29T04:38:33.521Z,0.00
2017-09-29T04:39:33.451Z,0.00
2017-09-29T04:40:33.361Z,0.00
2017-09-29T04:41:33.285Z,0.00
2017-09-29T04:42:33.213Z,0.00
2017-09-29T04:43:33.124Z,0.00
2017-09-29T04:44:33.042Z,0.00
2017-09-29T04:45:32.964Z,0.00
2017-09-29T04:46:32.949Z,0.00
2017-09-29T04:47:32.807Z,0.00
2017-09-29T04:48:32.727Z,0.00
2017-09-29T04:49:32.651Z,0.00
2017-09-29T04:50:32.572Z,0.00
2017-09-29T04:51:32.522Z,0.00
2017-09-29T04:52:32.423Z,0.00
2017-09-29T04:53:32.339Z,0.00
2017-09-29T04:54:32.257Z,0.00
2017-09-29T04:55:32.179Z,0.00
2017-09-29T04:56:32.098Z,0.00
2017-09-29T04:57:32.017Z,0.00
2017-09-29T04:58:31.941Z,0.00
2017-09-29T04:59:31.863Z,0.00
2017-09-29T05:00:31.792Z,0.00
2017-09-29T05:01:31.704Z,0.00
2017-09-29T05:02:31.625Z,0.00
2017-09-29T05:03:31.547Z,0.00
2017-09-29T05:04:31.477Z,0.00
2017-09-29T05:05:31.399Z,0.00
2017-09-29T05:06:31.307Z,0.00
2017-09-29T05:07:31.232Z,0.00
2017-09-29T05:08:31.154Z,0.00
2017-09-29T05:09:31.076Z,0.00
2017-09-29T05:10:31.007Z,0.00
2017-09-29T05:11:30.920Z,0.00
2017-09-29T05:12:30.840Z,0.00
2017-09-29T05:13:30.762Z,0.00
2017-09-29T05:14:30.679Z,0.00
2017-09-29T05:15:30.602Z,0.00
2017-09-29T05:16:30.535Z,0.00
2017-09-29T05:17:30.453Z,0.00
2017-09-29T05:18:30.370Z,0.00
2017-09-29T05:19:30.288Z,0.00
2017-09-29T05:20:30.210Z,0.00
2017-09-29T05:21:30.129Z,0.00
2017-09-29T05:22:30.055Z,0.00
2017-09-29T05:23:29.977Z,0.00
2017-09-29T05:24:29.907Z,0.00
2017-09-29T05:25:29.823Z,0.00
2017-09-29T05:26:29.737Z,0.00
2017-09-29T05:27:29.663Z,0.00
2017-09-29T05:28:29.615Z,0.00
2017-09-29T05:29:29.506Z,5.63
2017-09-29T05:30:29.423Z,5.63
2017-09-29T05:31:29.346Z,5.63
2017-09-29T05:32:29.275Z,5.63
2017-09-29T05:33:29.194Z,5.63
2017-09-29T05:34:29.118Z,5.63
2017-09-29T05:35:29.041Z,5.63
2017-09-29T05:36:28.954Z,5.63
2017-09-29T05:37:28.877Z,5.63
2017-09-29T05:38:28.793Z,5.63
2017-09-29T05:39:28.722Z,11.25
2017-09-29T05:40:28.645Z,11.25
2017-09-29T05:41:28.564Z,11.25
2017-09-29T05:42:28.483Z,11.25
2017-09-29T05:43:28.410Z,11.25
2017-09-29T05:44:28.329Z,11.25
2017-09-29T05:45:28.253Z,11.25
2017-09-29T05:46:28.171Z,11.25
2017-09-29T05:47:28.095Z,16.88
2017-09-29T05:48:28.012Z,16.88
2017-09-29T05:49:27.934Z,16.88
2017-09-29T05:50:27.858Z,16.88
2017-09-29T05:51:27.781Z,16.88
2017-09-29T05:52:27.698Z,16.88
2017-09-29T05:53:27.623Z,16.88
2017-09-29T05:54:27.549Z,16.88
2017-09-29T05:55:27.463Z,16.88
2017-09-29T05:56:27.385Z,22.50
2017-09-29T05:57:27.306Z,22.50
2017-09-29T05:58:27.232Z,22.50
2017-09-29T05:59:27.150Z,22.50
2017-09-29T06:00:27.071Z,28.13
2017-09-29T06:01:26.991Z,28.13
2017-09-29T06:02:26.917Z,28.13
2017-09-29T06:03:26.835Z,28.13
2017-09-29T06:04:26.758Z,28.13
2017-09-29T06:05:26.682Z,28.13
2017-09-29T06:06:26.605Z,28.13
2017-09-29T06:07:26.536Z,28.13
2017-09-29T06:08:26.447Z,28.13
2017-09-29T06:09:26.365Z,28.13
2017-09-29T06:10:26.305Z,28.13
2017-09-29T06:11:26.212Z,33.75
2017-09-29T06:12:26.131Z,33.75
2017-09-29T06:13:26.050Z,39.38
2017-09-29T06:14:25.973Z,39.38
2017-09-29T06:15:25.892Z,45.00
2017-09-29T06:16:25.815Z,45.00
2017-09-29T06:17:25.740Z,45.00
2017-09-29T06:18:25.661Z,45.00
2017-09-29T06:19:25.589Z,50.63
2017-09-29T06:20:25.504Z,50.63
2017-09-29T06:21:25.427Z,50.63
2017-09-29T06:22:25.363Z,50.63
2017-09-29T06:23:25.264Z,50.63
2017-09-29T06:24:25.191Z,50.63
2017-09-29T06:25:25.111Z,50.63
2017-09-29T06:26:25.033Z,56.25
2017-09-29T06:27:24.957Z,56.25
2017-09-29T06:28:24.874Z,61.88
2017-09-29T06:29:24.797Z,61.88
2017-09-29T06:30:24.718Z,61.88
2017-09-29T06:31:24.639Z,67.50
2017-09-29T06:32:24.565Z,67.50
2017-09-29T06:33:24.483Z,73.13
2017-09-29T06:34:24.406Z,73.13
2017-09-29T06:35:24.325Z,78.75
2017-09-29T06:36:24.245Z,78.75
2017-09-29T06:37:24.170Z,84.38
2017-09-29T06:38:24.089Z,84.38
2017-09-29T06:39:24.011Z,90.00
2017-09-29T06:40:23.938Z,90.00
2017-09-29T06:41:23.863Z,95.63
2017-09-29T06:42:23.781Z,101.25
2017-09-29T06:43:23.698Z,101.25
2017-09-29T06:44:23.628Z,106.88
2017-09-29T06:45:23.554Z,112.50
2017-09-29T06:46:23.466Z,106.88
2017-09-29T06:47:23.388Z,106.88
2017-09-29T06:48:23.316Z,106.88
2017-09-29T06:49:23.234Z,112.50
2017-09-29T06:50:23.152Z,118.13
2017-09-29T06:51:23.074Z,118.13
2017-09-29T06:52:23.008Z,129.38
2017-09-29T06:53:22.920Z,135.00
2017-09-29T06:54:22.839Z,140.63
2017-09-29T06:55:22.765Z,140.63
2017-09-29T06:56:22.685Z,146.25
2017-09-29T06:57:22.610Z,151.88
2017-09-29T06:58:22.524Z,157.50
2017-09-29T06:59:22.453Z,163.13
2017-09-29T07:00:22.371Z,174.38
2017-09-29T07:01:22.291Z,180.00
2017-09-29T07:02:22.215Z,185.63
2017-09-29T07:03:22.138Z,196.88
2017-09-29T07:04:22.058Z,202.50
2017-09-29T07:05:21.981Z,208.13
2017-09-29T07:06:21.903Z,219.38
2017-09-29T07:07:21.827Z,225.00
2017-09-29T07:08:21.750Z,230.63
2017-09-29T07:09:21.670Z,236.25
2017-09-29T07:10:21.599Z,241.88
2017-09-29T07:11:21.527Z,247.50
2017-09-29T07:12:21.436Z,264.38
2017-09-29T07:13:21.377Z,281.25
2017-09-29T07:14:21.285Z,298.13
2017-09-29T07:15:21.202Z,315.00
2017-09-29T07:16:21.128Z,331.88
2017-09-29T07:17:21.052Z,343.13
2017-09-29T07:18:20.970Z,348.75
2017-09-29T07:19:20.890Z,365.63
2017-09-29T07:20:20.812Z,365.63
2017-09-29T07:21:20.734Z,376.88
2017-09-29T07:22:20.655Z,399.38
2017-09-29T07:23:20.582Z,427.50
2017-09-29T07:24:20.499Z,444.38
2017-09-29T07:25:20.426Z,478.13
2017-09-29T07:26:20.347Z,545.63
2017-09-29T07:27:20.273Z,568.13
2017-09-29T07:28:20.199Z,545.63
2017-09-29T07:29:20.115Z,601.88
2017-09-29T07:30:20.038Z,585.00
2017-09-29T07:31:19.961Z,596.25
2017-09-29T07:32:19.878Z,624.38
2017-09-29T07:33:19.808Z,630.00
2017-09-29T07:34:19.734Z,607.50
2017-09-29T07:35:19.659Z,601.88
2017-09-29T07:36:19.592Z,624.38
2017-09-29T07:37:19.497Z,601.88
2017-09-29T07:38:19.424Z,579.38
2017-09-29T07:39:19.344Z,551.25
2017-09-29T07:40:19.271Z,540.00
2017-09-29T07:41:19.769Z,528.75
2017-09-29T07:42:19.118Z,534.38
2017-09-29T07:43:19.041Z,556.88
2017-09-29T07:44:18.962Z,551.25
2017-09-29T07:45:18.891Z,573.75
2017-09-29T07:46:18.807Z,585.00
2017-09-29T07:47:18.728Z,601.88
2017-09-29T07:48:18.655Z,658.13
2017-09-29T07:49:18.575Z,736.88
2017-09-29T07:50:18.503Z,663.75
2017-09-29T07:51:18.427Z,675.00
2017-09-29T07:52:18.349Z,720.00
2017-09-29T07:53:18.272Z,720.00
2017-09-29T07:54:18.195Z,736.88
2017-09-29T07:55:18.126Z,776.25
2017-09-29T07:56:18.045Z,1091.25
2017-09-29T07:57:17.973Z,765.00
2017-09-29T07:58:17.894Z,776.25
2017-09-29T07:59:17.816Z,1096.88
2017-09-29T08:00:17.743Z,1496.25
2017-09-29T08:01:17.662Z,1535.63
2017-09-29T08:02:17.596Z,1423.13
2017-09-29T08:03:17.516Z,2452.50
2017-09-29T08:04:17.436Z,1811.25
2017-09-29T08:05:17.369Z,860.63
2017-09-29T08:06:17.284Z,759.38
2017-09-29T08:07:17.215Z,804.38
2017-09-29T08:08:17.133Z,1783.13
2017-09-29T08:09:17.061Z,1935.00
2017-09-29T08:10:16.981Z,2255.63
2017-09-29T08:11:16.910Z,2396.25
2017-09-29T08:12:16.840Z,2058.75
2017-09-29T08:13:16.759Z,2323.13
2017-09-29T08:14:16.686Z,2070.00
2017-09-29T08:15:16.615Z,2913.75
2017-09-29T08:16:16.536Z,2154.38
2017-09-29T08:17:16.462Z,1147.50
2017-09-29T08:18:16.391Z,2216.25
2017-09-29T08:19:16.314Z,1366.88
2017-09-29T08:20:16.241Z,978.75
2017-09-29T08:21:16.181Z,798.75
2017-09-29T08:22:16.094Z,787.50
2017-09-29T08:23:16.026Z,1035.00
2017-09-29T08:24:15.944Z,1170.00
2017-09-29T08:25:15.872Z,798.75
2017-09-29T08:26:15.810Z,1974.38
2017-09-29T08:27:15.724Z,1445.63
2017-09-29T08:28:15.650Z,708.75
2017-09-29T08:29:15.577Z,579.38
2017-09-29T08:30:15.502Z,517.50
2017-09-29T08:31:15.428Z,472.50
2017-09-29T08:32:15.350Z,461.25
2017-09-29T08:33:15.281Z,1203.75
2017-09-29T08:34:15.201Z,438.75
2017-09-29T08:35:15.132Z,399.38
2017-09-29T08:36:15.077Z,393.75
2017-09-29T08:37:14.980Z,410.63
2017-09-29T08:38:14.927Z,433.13
2017-09-29T08:39:14.832Z,455.63
2017-09-29T08:40:14.758Z,495.00
2017-09-29T08:41:14.690Z,540.00
2017-09-29T08:42:14.616Z,624.38
2017-09-29T08:43:14.562Z,770.63
2017-09-29T08:44:14.464Z,765.00
2017-09-29T08:45:14.398Z,624.38
2017-09-29T08:46:14.308Z,618.75
2017-09-29T08:47:14.235Z,585.00
2017-09-29T08:48:14.163Z,562.50
2017-09-29T08:49:14.088Z,562.50
2017-09-29T08:50:14.013Z,601.88
2017-09-29T08:51:13.944Z,663.75
2017-09-29T08:52:13.874Z,703.13
2017-09-29T08:53:13.791Z,680.63
2017-09-29T08:54:13.721Z,635.63
2017-09-29T08:55:13.638Z,652.50
2017-09-29T08:56:13.562Z,708.75
2017-09-29T08:57:13.489Z,787.50
2017-09-29T08:58:13.417Z,894.38
2017-09-29T08:59:13.339Z,928.13
2017-09-29T09:00:13.264Z,883.13
2017-09-29T09:01:13.188Z,821.25
2017-09-29T09:02:13.117Z,736.88
2017-09-29T09:03:13.039Z,658.13
2017-09-29T09:04:12.964Z,618.75
2017-09-29T09:05:12.892Z,618.75
2017-09-29T09:06:12.821Z,652.50
2017-09-29T09:07:12.741Z,731.25
2017-09-29T09:08:12.673Z,781.88
2017-09-29T09:09:12.600Z,725.63
2017-09-29T09:10:12.516Z,675.00
2017-09-29T09:11:12.446Z,635.63
2017-09-29T09:12:12.388Z,652.50
2017-09-29T09:13:12.293Z,720.00
2017-09-29T09:14:12.217Z,776.25
2017-09-29T09:15:12.148Z,832.50
2017-09-29T09:16:12.067Z,860.63
2017-09-29T09:17:11.998Z,798.75
2017-09-29T09:18:11.933Z,781.88
2017-09-29T09:19:11.840Z,759.38
2017-09-29T09:20:11.783Z,748.13
2017-09-29T09:21:11.696Z,753.75
2017-09-29T09:22:11.622Z,731.25
2017-09-29T09:23:11.546Z,635.63
2017-09-29T09:24:11.505Z,663.75
2017-09-29T09:25:11.397Z,568.13
2017-09-29T09:26:11.317Z,455.63
2017-09-29T09:27:11.243Z,399.38
2017-09-29T09:28:11.171Z,354.38
2017-09-29T09:29:11.100Z,309.38
2017-09-29T09:30:11.019Z,281.25
2017-09-29T09:31:10.942Z,253.13
2017-09-29T09:32:10.868Z,236.25
2017-09-29T09:33:10.802Z,219.38
2017-09-29T09:34:10.717Z,219.38
2017-09-29T09:35:10.640Z,213.75
2017-09-29T09:36:10.569Z,213.75
2017-09-29T09:37:10.502Z,208.13
2017-09-29T09:38:10.419Z,202.50
2017-09-29T09:39:10.341Z,196.88
2017-09-29T09:40:10.265Z,196.88
2017-09-29T09:41:10.192Z,196.88
2017-09-29T09:42:10.117Z,196.88
2017-09-29T09:43:10.039Z,196.88
2017-09-29T09:44:09.962Z,191.25
2017-09-29T09:45:09.893Z,191.25
2017-09-29T09:46:09.812Z,185.63
2017-09-29T09:47:09.735Z,174.38
2017-09-29T09:48:09.660Z,168.75
2017-09-29T09:49:09.597Z,168.75
2017-09-29T09:50:09.509Z,163.13
2017-09-29T09:51:09.439Z,168.75
2017-09-29T09:52:09.363Z,180.00
2017-09-29T09:53:09.281Z,185.63
2017-09-29T09:54:09.209Z,196.88
2017-09-29T09:55:09.145Z,202.50
2017-09-29T09:56:09.083Z,219.38
2017-09-29T09:57:08.982Z,225.00
2017-09-29T09:58:08.905Z,230.63
2017-09-29T09:59:08.832Z,236.25
2017-09-29T10:00:08.757Z,236.25
2017-09-29T10:01:08.678Z,236.25
2017-09-29T10:02:08.599Z,230.63
2017-09-29T10:03:08.566Z,225.00
2017-09-29T10:04:08.453Z,225.00
2017-09-29T10:05:08.407Z,219.38
2017-09-29T10:06:08.296Z,208.13
2017-09-29T10:07:08.222Z,196.88
2017-09-29T10:08:08.151Z,185.63
2017-09-29T10:09:08.072Z,180.00
2017-09-29T10:10:08.006Z,168.75
2017-09-29T10:11:07.927Z,163.13
2017-09-29T10:12:07.839Z,163.13
2017-09-29T10:13:07.768Z,157.50
2017-09-29T10:14:07.687Z,151.88
2017-09-29T10:15:07.619Z,151.88
2017-09-29T10:16:07.535Z,151.88
2017-09-29T10:17:07.458Z,151.88
2017-09-29T10:18:07.381Z,157.50
2017-09-29T10:19:07.315Z,163.13
2017-09-29T10:20:07.241Z,168.75
2017-09-29T10:21:07.153Z,174.38
2017-09-29T10:22:07.079Z,196.88
2017-09-29T10:23:07.005Z,213.75
2017-09-29T10:24:06.924Z,241.88
2017-09-29T10:25:06.851Z,264.38
2017-09-29T10:26:06.772Z,298.13
2017-09-29T10:27:06.697Z,343.13
2017-09-29T10:28:06.627Z,410.63
2017-09-29T10:29:06.544Z,523.13
2017-09-29T10:30:06.476Z,601.88
2017-09-29T10:31:06.392Z,579.38
2017-09-29T10:32:06.315Z,556.88
2017-09-29T10:33:06.245Z,528.75
2017-09-29T10:34:06.173Z,517.50
2017-09-29T10:35:06.088Z,523.13
2017-09-29T10:36:06.021Z,534.38
2017-09-29T10:37:05.938Z,556.88
2017-09-29T10:38:05.862Z,573.75
2017-09-29T10:39:05.792Z,590.63
2017-09-29T10:40:05.727Z,596.25
2017-09-29T10:41:05.633Z,590.63
2017-09-29T10:42:05.557Z,641.25
2017-09-29T10:43:05.488Z,573.75
2017-09-29T10:44:05.409Z,551.25
2017-09-29T10:45:05.333Z,517.50
2017-09-29T10:46:05.250Z,489.38
2017-09-29T10:47:05.183Z,472.50
2017-09-29T10:48:05.112Z,455.63
2017-09-29T10:49:05.029Z,466.88
2017-09-29T10:50:04.955Z,472.50
2017-09-29T10:51:04.888Z,444.38
2017-09-29T10:52:04.808Z,405.00
2017-09-29T10:53:04.733Z,405.00
2017-09-29T10:54:04.652Z,444.38
2017-09-29T10:55:04.581Z,798.75
2017-09-29T10:56:04.520Z,658.13
2017-09-29T10:57:04.434Z,680.63
2017-09-29T10:58:04.352Z,725.63
2017-09-29T10:59:04.281Z,911.25
2017-09-29T11:00:04.201Z,871.88
2017-09-29T11:01:04.132Z,967.50
2017-09-29T11:02:04.056Z,1186.88
2017-09-29T11:03:03.987Z,1119.38
2017-09-29T11:04:03.902Z,2233.13
2017-09-29T11:05:03.827Z,1321.88
2017-09-29T11:06:03.759Z,1186.88
2017-09-29T11:07:03.680Z,1625.63
2017-09-29T11:08:03.610Z,1305.00
2017-09-29T11:09:03.535Z,1237.50
2017-09-29T11:10:03.458Z,1029.38
2017-09-29T11:11:03.385Z,1158.75
2017-09-29T11:12:03.354Z,1170.00
2017-09-29T11:13:03.243Z,984.38
2017-09-29T11:14:03.169Z,1080.00
2017-09-29T11:15:03.097Z,1023.75
2017-09-29T11:16:03.025Z,2092.50
2017-09-29T11:17:02.956Z,2317.50
2017-09-29T11:18:02.964Z,2503.13
2017-09-29T11:19:02.810Z,1310.63
2017-09-29T11:20:02.736Z,1951.88
2017-09-29T11:21:02.669Z,2160.00
2017-09-29T11:22:02.596Z,2289.38
2017-09-29T11:23:02.530Z,2300.63
2017-09-29T11:24:02.455Z,2733.75
2017-09-29T11:25:02.420Z,1895.63
2017-09-29T11:26:02.314Z,2182.50
2017-09-29T11:27:02.243Z,3144.38
2017-09-29T11:28:02.175Z,2975.63
2017-09-29T11:29:02.109Z,3150.00
2017-09-29T11:30:02.044Z,3414.38
2017-09-29T11:31:01.970Z,3712.50
2017-09-29T11:32:01.926Z,3487.50
2017-09-29T11:33:01.835Z,3813.75
2017-09-29T11:34:01.772Z,3825.00
2017-09-29T11:35:01.702Z,3993.75
2017-09-29T11:36:01.632Z,3155.63
2017-09-29T11:37:01.560Z,3763.13
2017-09-29T11:38:01.498Z,3909.38
2017-09-29T11:39:01.421Z,3628.13
2017-09-29T11:40:01.366Z,3881.25
2017-09-29T11:41:01.287Z,3515.63
2017-09-29T11:42:01.223Z,1811.25
2017-09-29T11:43:01.144Z,978.75
2017-09-29T11:44:01.069Z,945.00
2017-09-29T11:45:01.009Z,928.13
2017-09-29T11:46:00.934Z,883.13
2017-09-29T11:47:00.854Z,855.00
2017-09-29T11:48:00.790Z,866.25
2017-09-29T11:49:00.718Z,866.25
2017-09-29T11:50:00.641Z,855.00
2017-09-29T11:51:00.568Z,821.25
2017-09-29T11:52:00.508Z,821.25
2017-09-29T11:53:00.436Z,826.88
2017-09-29T11:54:00.362Z,855.00
2017-09-29T11:55:00.288Z,860.63
2017-09-29T11:56:00.218Z,838.13
2017-09-29T11:57:00.150Z,793.13
2017-09-29T11:58:00.070Z,821.25
2017-09-29T11:59:00.005Z,821.25
2017-09-29T11:59:59.934Z,742.50
2017-09-29T12:00:59.870Z,624.38
2017-09-29T12:01:59.810Z,585.00
2017-09-29T12:02:59.717Z,658.13
2017-09-29T12:03:59.654Z,708.75
2017-09-29T12:04:59.571Z,776.25
2017-09-29T12:05:59.535Z,765.00
2017-09-29T12:06:59.433Z,770.63
2017-09-29T12:07:59.363Z,793.13
2017-09-29T12:08:59.289Z,793.13
2017-09-29T12:09:59.217Z,781.88
2017-09-29T12:10:59.142Z,781.88
2017-09-29T12:11:59.068Z,776.25
2017-09-29T12:12:58.994Z,742.50
2017-09-29T12:13:58.924Z,731.25
2017-09-29T12:14:58.853Z,697.50
2017-09-29T12:15:58.785Z,714.38
2017-09-29T12:16:58.707Z,703.13
2017-09-29T12:17:58.635Z,691.88
2017-09-29T12:18:58.566Z,680.63
2017-09-29T12:19:58.497Z,669.38
2017-09-29T12:20:58.425Z,703.13
2017-09-29T12:21:58.351Z,703.13
2017-09-29T12:22:58.280Z,720.00
2017-09-29T12:23:58.205Z,742.50
2017-09-29T12:24:58.138Z,748.13
2017-09-29T12:25:58.059Z,748.13
2017-09-29T12:26:57.988Z,725.63
2017-09-29T12:27:57.916Z,697.50
2017-09-29T12:28:57.845Z,708.75
2017-09-29T12:29:57.778Z,691.88
2017-09-29T12:30:57.702Z,691.88
2017-09-29T12:31:57.628Z,680.63
2017-09-29T12:32:57.558Z,675.00
2017-09-29T12:33:57.491Z,669.38
2017-09-29T12:34:57.413Z,652.50
2017-09-29T12:35:57.341Z,641.25
2017-09-29T12:36:57.271Z,624.38
2017-09-29T12:37:57.197Z,613.13
2017-09-29T12:38:57.130Z,601.88
2017-09-29T12:39:57.055Z,585.00
2017-09-29T12:40:56.982Z,573.75
2017-09-29T12:41:56.914Z,562.50
2017-09-29T12:42:56.831Z,556.88
2017-09-29T12:43:56.762Z,545.63
2017-09-29T12:44:56.686Z,540.00
2017-09-29T12:45:56.613Z,540.00
2017-09-29T12:46:56.542Z,534.38
2017-09-29T12:47:56.469Z,534.38
2017-09-29T12:48:56.396Z,528.75